CheckWX is a tool to help pilots better visualize weather data.  It is not intended as a substitute for an official pre-flight weather briefing.

02:53:16 UTC

KLBL METAR
Liberal Mid-America Regional Airport
Liberal, Kansas, USA
Current

57 mins ago

KLBL 240156Z AUTO 02006KT 10SM FEW100 11/04 A2994 RMK AO2 SLP138 T01060039
Observed
Mar-24 @ 01:56 UTC
Wind
  • 020° at 6 KTS
Visibility
10 SM
Flight Rules
VFR
Cloud Levels
  • Few at 10,000' AGL
Temperature
11°C / 52°F
Dewpoint
C / 39°F
Humidity
62%
Altimeter
29.94" Hg
Pressure
1013.8 hPa
Previous

2 hours ago

KLBL 240056Z AUTO 01003KT 10SM CLR 15/03 A2991 RMK AO2 SLP125 T01500028
Observed
Mar-24 @ 00:56 UTC
Wind
  • 010° at 3 KTS
Visibility
10 SM
Flight Rules
VFR
Cloud Levels
  • Clear skies
Temperature
15°C / 59°F
Dewpoint
C / 37°F
Humidity
45%
Altimeter
29.91" Hg
Pressure
1012.5 hPa
Previous

3 hours ago

KLBL 232356Z AUTO 32004KT 10SM CLR 17/02 A2990 RMK AO2 SLP118 T01720017 10189 20144 50002
Observed
Mar-23 @ 23:56 UTC
Wind
  • 320° at 4 KTS
Visibility
10 SM
Flight Rules
VFR
Cloud Levels
  • Clear skies
Temperature
17°C / 63°F
Dewpoint
C / 36°F
Humidity
37%
Altimeter
29.9" Hg
Pressure
1011.8 hPa